createdAt,value
2018-07-25T00:01:12.715Z,23.58
2018-07-25T00:03:39.442Z,23.55
2018-07-25T00:06:06.241Z,23.57
2018-07-25T00:08:32.975Z,23.40
2018-07-25T00:10:59.757Z,23.38
2018-07-25T00:13:26.835Z,23.45
2018-07-25T00:15:53.699Z,23.36
2018-07-25T00:18:20.448Z,23.25
2018-07-25T00:20:47.204Z,23.19
2018-07-25T00:23:13.963Z,23.21
2018-07-25T00:25:40.723Z,23.23
2018-07-25T00:28:07.645Z,23.28
2018-07-25T00:30:34.407Z,23.34
2018-07-25T00:33:01.668Z,23.19
2018-07-25T00:35:28.393Z,23.21
2018-07-25T00:37:55.163Z,23.31
2018-07-25T00:40:21.907Z,23.32
2018-07-25T00:42:49.120Z,23.18
2018-07-25T00:45:15.863Z,23.19
2018-07-25T00:47:42.627Z,23.19
2018-07-25T00:50:09.399Z,23.12
2018-07-25T00:52:36.158Z,23.11
2018-07-25T00:55:02.904Z,23.02
2018-07-25T00:57:29.703Z,23.02
2018-07-25T00:59:56.428Z,22.93
2018-07-25T01:02:23.224Z,22.85
2018-07-25T01:04:49.991Z,22.79
2018-07-25T01:07:16.720Z,22.74
2018-07-25T01:09:43.484Z,22.72
2018-07-25T01:12:10.224Z,22.68
2018-07-25T01:14:37.024Z,22.62
2018-07-25T01:17:03.799Z,22.61
2018-07-25T01:19:30.559Z,22.62
2018-07-25T01:21:57.293Z,22.72
2018-07-25T01:24:24.056Z,22.72
2018-07-25T01:26:50.826Z,22.77
2018-07-25T01:29:17.588Z,22.61
2018-07-25T01:31:44.386Z,22.46
2018-07-25T01:34:11.156Z,22.56
2018-07-25T01:36:37.891Z,22.49
2018-07-25T01:39:06.697Z,22.36
2018-07-25T01:41:33.432Z,22.23
2018-07-25T01:44:00.155Z,22.14
2018-07-25T01:46:26.927Z,22.08
2018-07-25T01:48:53.672Z,21.92
2018-07-25T01:51:20.463Z,21.86
2018-07-25T01:53:47.208Z,21.90
2018-07-25T01:56:13.968Z,22.02
2018-07-25T01:58:40.696Z,22.09
2018-07-25T02:01:07.456Z,22.20
2018-07-25T02:03:34.192Z,22.24
2018-07-25T02:06:01.539Z,22.28
2018-07-25T02:08:28.289Z,22.30
2018-07-25T02:10:55.044Z,22.31
2018-07-25T02:13:21.785Z,22.27
2018-07-25T02:15:48.587Z,22.16
2018-07-25T02:18:15.304Z,22.06
2018-07-25T02:20:42.311Z,21.94
2018-07-25T02:23:09.041Z,21.85
2018-07-25T02:25:35.815Z,21.79
2018-07-25T02:28:02.568Z,21.83
2018-07-25T02:30:29.302Z,21.90
2018-07-25T02:32:56.067Z,21.94
2018-07-25T02:35:22.924Z,21.90
2018-07-25T02:37:49.701Z,21.81
2018-07-25T02:40:16.450Z,21.76
2018-07-25T02:42:43.220Z,21.70
2018-07-25T02:45:09.953Z,21.71
2018-07-25T02:47:36.715Z,21.79
2018-07-25T02:50:03.716Z,21.77
2018-07-25T02:52:30.551Z,21.77
2018-07-25T02:54:57.315Z,21.70
2018-07-25T02:57:24.076Z,21.48
2018-07-25T02:59:50.803Z,21.42
2018-07-25T03:02:17.570Z,21.43
2018-07-25T03:04:44.307Z,21.53
2018-07-25T03:07:11.089Z,21.50
2018-07-25T03:09:37.814Z,21.44
2018-07-25T03:12:04.587Z,21.49
2018-07-25T03:14:31.335Z,21.43
2018-07-25T03:16:58.063Z,21.41
2018-07-25T03:19:24.840Z,21.36
2018-07-25T03:21:51.563Z,21.36
2018-07-25T03:24:18.347Z,21.49
2018-07-25T03:26:45.075Z,21.35
2018-07-25T03:29:11.880Z,21.33
2018-07-25T03:31:38.639Z,21.30
2018-07-25T03:34:05.371Z,21.32
2018-07-25T03:36:32.114Z,21.20
2018-07-25T03:38:58.860Z,21.08
2018-07-25T03:41:25.595Z,21.12
2018-07-25T03:43:52.356Z,21.18
2018-07-25T03:46:19.095Z,21.23
2018-07-25T03:48:45.983Z,21.15
2018-07-25T03:51:12.729Z,20.94
2018-07-25T03:53:39.727Z,20.86
2018-07-25T03:56:06.512Z,20.90
2018-07-25T03:58:33.231Z,21.04
2018-07-25T04:01:00.000Z,21.00
2018-07-25T04:03:26.736Z,21.01
2018-07-25T04:05:53.494Z,20.93
2018-07-25T04:08:20.251Z,20.92
2018-07-25T04:10:47.593Z,20.94
2018-07-25T04:13:14.504Z,21.02
2018-07-25T04:15:41.272Z,20.97
2018-07-25T04:18:08.010Z,20.95
2018-07-25T04:20:34.771Z,20.90
2018-07-25T04:23:01.955Z,20.95
2018-07-25T04:25:28.787Z,20.90
2018-07-25T04:27:55.544Z,20.79
2018-07-25T04:30:22.316Z,20.77
2018-07-25T04:32:49.201Z,20.77
2018-07-25T04:35:16.364Z,20.85
2018-07-25T04:37:43.474Z,20.88
2018-07-25T04:40:10.263Z,20.93
2018-07-25T04:42:37.328Z,20.86
2018-07-25T04:45:05.463Z,20.88
2018-07-25T04:47:33.284Z,20.96
2018-07-25T04:50:00.029Z,21.02
2018-07-25T04:52:26.799Z,21.08
2018-07-25T04:54:53.536Z,21.15
2018-07-25T04:57:20.348Z,21.18
2018-07-25T04:59:47.075Z,21.20
2018-07-25T05:02:13.844Z,21.25
2018-07-25T05:04:40.575Z,21.31
2018-07-25T05:07:07.393Z,21.42
2018-07-25T05:09:34.087Z,21.51
2018-07-25T05:12:01.320Z,21.57
2018-07-25T05:14:28.048Z,21.68
2018-07-25T05:16:54.816Z,21.81
2018-07-25T05:19:21.565Z,21.87
2018-07-25T05:21:48.291Z,21.94
2018-07-25T05:24:15.083Z,22.02
2018-07-25T05:26:41.810Z,22.02
2018-07-25T05:29:08.600Z,22.11
2018-07-25T05:31:35.330Z,22.17
2018-07-25T05:34:02.091Z,22.35
2018-07-25T05:36:28.831Z,22.51
2018-07-25T05:38:55.591Z,22.64
2018-07-25T05:41:22.320Z,22.75
2018-07-25T05:43:49.145Z,22.77
2018-07-25T05:46:15.901Z,22.68
2018-07-25T05:48:42.648Z,22.66
2018-07-25T05:51:09.383Z,22.71
2018-07-25T05:53:36.144Z,22.77
2018-07-25T05:56:02.910Z,22.88
2018-07-25T05:58:29.663Z,22.85
2018-07-25T06:00:56.536Z,22.88
2018-07-25T06:03:23.404Z,22.90
2018-07-25T06:05:50.086Z,22.91
2018-07-25T06:08:16.799Z,23.06
2018-07-25T06:10:43.607Z,23.10
2018-07-25T06:13:10.377Z,23.12
2018-07-25T06:15:37.148Z,23.26
2018-07-25T06:18:03.924Z,23.32
2018-07-25T06:20:30.678Z,23.40
2018-07-25T06:22:57.405Z,23.52
2018-07-25T06:25:24.184Z,23.69
2018-07-25T06:27:51.279Z,23.81
2018-07-25T06:30:18.014Z,23.95
2018-07-25T06:32:44.732Z,24.07
2018-07-25T06:35:11.572Z,24.19
2018-07-25T06:37:38.295Z,24.34
2018-07-25T06:40:06.103Z,24.48
2018-07-25T06:42:32.838Z,24.60
2018-07-25T06:44:59.711Z,24.67
2018-07-25T06:47:26.451Z,24.76
2018-07-25T06:49:53.179Z,24.90
2018-07-25T06:52:19.935Z,24.98
2018-07-25T06:54:46.727Z,25.00
2018-07-25T06:57:13.489Z,25.06
2018-07-25T06:59:40.171Z,25.13
2018-07-25T07:02:07.008Z,25.20
2018-07-25T07:04:33.740Z,25.27
2018-07-25T07:07:00.599Z,25.22
2018-07-25T07:09:27.263Z,25.35
2018-07-25T07:11:54.013Z,25.43
2018-07-25T07:14:21.021Z,25.57
2018-07-25T07:16:47.783Z,25.70
2018-07-25T07:19:14.503Z,25.73
2018-07-25T07:21:41.267Z,25.82
2018-07-25T07:24:08.015Z,25.94
2018-07-25T07:26:34.744Z,26.05
2018-07-25T07:29:01.992Z,26.06
2018-07-25T07:31:28.762Z,26.08
2018-07-25T07:33:55.515Z,26.12
2018-07-25T07:36:22.236Z,26.17
2018-07-25T07:38:49.015Z,26.25
2018-07-25T07:41:15.739Z,26.28
2018-07-25T07:43:42.513Z,26.32
2018-07-25T07:46:09.323Z,26.32
2018-07-25T07:48:36.075Z,26.41
2018-07-25T07:51:02.799Z,26.51
2018-07-25T07:53:29.573Z,26.59
2018-07-25T07:55:56.299Z,26.70
2018-07-25T07:58:23.052Z,26.73
2018-07-25T08:00:49.778Z,26.79
2018-07-25T08:03:16.534Z,26.72
2018-07-25T08:05:43.246Z,26.78
2018-07-25T08:08:09.999Z,26.90
2018-07-25T08:10:36.869Z,27.08
2018-07-25T08:13:03.587Z,27.22
2018-07-25T08:15:30.359Z,27.25
2018-07-25T08:17:57.101Z,27.35
2018-07-25T08:20:23.899Z,27.43
2018-07-25T08:22:50.648Z,27.44
2018-07-25T08:25:17.411Z,27.39
2018-07-25T08:27:44.166Z,27.44
2018-07-25T08:30:10.907Z,27.36
2018-07-25T08:32:37.657Z,27.39
2018-07-25T08:35:04.407Z,27.45
2018-07-25T08:37:31.135Z,27.57
2018-07-25T08:39:57.932Z,27.66
2018-07-25T08:42:24.651Z,27.80
2018-07-25T08:44:51.407Z,27.91
2018-07-25T08:47:18.129Z,28.04
2018-07-25T08:49:44.887Z,28.12
2018-07-25T08:52:11.612Z,28.17
2018-07-25T08:54:38.369Z,28.23
2018-07-25T08:57:05.130Z,28.29
2018-07-25T08:59:31.900Z,28.35
2018-07-25T09:01:58.653Z,28.47
2018-07-25T09:04:25.429Z,28.56
2018-07-25T09:06:52.179Z,28.65
2018-07-25T09:09:18.933Z,28.60
2018-07-25T09:11:45.712Z,28.65
2018-07-25T09:14:12.475Z,28.72
2018-07-25T09:16:39.249Z,28.72
2018-07-25T09:19:06.006Z,28.81
2018-07-25T09:21:32.828Z,28.73
2018-07-25T09:23:59.552Z,28.74
2018-07-25T09:26:26.369Z,28.74
2018-07-25T09:28:53.588Z,28.66
2018-07-25T09:31:20.432Z,28.72
2018-07-25T09:33:47.279Z,28.86
2018-07-25T09:36:13.968Z,28.87
2018-07-25T09:38:40.705Z,28.89
2018-07-25T09:41:07.478Z,28.95
2018-07-25T09:43:34.204Z,29.08
2018-07-25T09:46:01.603Z,29.13
2018-07-25T09:48:28.367Z,29.21
2018-07-25T09:50:55.104Z,29.27
2018-07-25T09:53:21.936Z,29.27
2018-07-25T09:55:48.660Z,29.24
2018-07-25T09:58:15.448Z,29.24
2018-07-25T10:00:47.954Z,29.19
2018-07-25T10:03:14.876Z,29.25
2018-07-25T10:05:41.691Z,29.28
2018-07-25T10:08:08.683Z,29.31
2018-07-25T10:10:35.456Z,29.39
2018-07-25T10:13:02.367Z,29.46
2018-07-25T10:15:29.103Z,29.46
2018-07-25T10:17:55.920Z,29.49
2018-07-25T10:20:22.841Z,29.45
2018-07-25T10:22:49.624Z,29.35
2018-07-25T10:25:16.348Z,29.30
2018-07-25T10:27:43.195Z,29.32
2018-07-25T10:30:09.954Z,29.32
2018-07-25T10:32:36.705Z,29.39
2018-07-25T10:35:03.568Z,29.51
2018-07-25T10:37:30.272Z,29.44
2018-07-25T10:39:57.672Z,29.50
2018-07-25T10:42:25.996Z,29.56
2018-07-25T10:44:56.968Z,29.45
2018-07-25T10:47:23.963Z,29.41
2018-07-25T10:49:52.307Z,29.30
2018-07-25T10:52:21.095Z,29.29
2018-07-25T10:54:47.855Z,29.41
2018-07-25T10:57:15.512Z,29.56
2018-07-25T10:59:42.279Z,29.55
2018-07-25T11:02:09.452Z,29.48
2018-07-25T11:04:36.172Z,29.46
2018-07-25T11:07:02.951Z,29.53
2018-07-25T11:09:29.750Z,29.57
2018-07-25T11:11:57.376Z,29.57
2018-07-25T11:14:24.187Z,29.54
2018-07-25T11:16:51.159Z,29.42
2018-07-25T11:19:17.902Z,29.24
2018-07-25T11:21:44.741Z,29.13
2018-07-25T11:24:11.479Z,29.03
2018-07-25T11:26:38.308Z,28.91
2018-07-25T11:29:05.089Z,28.84
2018-07-25T11:31:31.863Z,28.82
2018-07-25T11:33:58.616Z,28.76
2018-07-25T11:36:25.419Z,28.76
2018-07-25T11:38:52.228Z,28.75
2018-07-25T11:41:19.008Z,28.74
2018-07-25T11:43:45.808Z,28.73
2018-07-25T11:46:12.539Z,28.84
2018-07-25T11:48:39.359Z,28.95
2018-07-25T11:51:06.240Z,29.11
2018-07-25T11:53:33.004Z,29.24
2018-07-25T11:55:59.847Z,29.27
2018-07-25T11:58:26.637Z,29.25
2018-07-25T12:00:53.465Z,29.28
2018-07-25T12:03:20.272Z,29.37
2018-07-25T12:05:47.026Z,29.48
2018-07-25T12:08:13.824Z,29.54
2018-07-25T12:10:40.575Z,29.65
2018-07-25T12:13:07.365Z,29.72
2018-07-25T12:15:34.107Z,29.74
2018-07-25T12:18:00.948Z,29.68
2018-07-25T12:20:27.729Z,29.61
2018-07-25T12:22:54.509Z,29.53
2018-07-25T12:25:21.797Z,29.54
2018-07-25T12:27:48.608Z,29.65
2018-07-25T12:30:15.401Z,29.69
2018-07-25T12:32:42.170Z,29.72
2018-07-25T12:35:09.701Z,29.68
2018-07-25T12:37:36.548Z,29.66
2018-07-25T12:40:03.649Z,29.70
2018-07-25T12:42:30.392Z,29.86
2018-07-25T12:44:57.163Z,30.02
2018-07-25T12:47:23.912Z,30.11
2018-07-25T12:49:50.812Z,30.21
2018-07-25T12:52:17.587Z,30.29
2018-07-25T12:54:44.851Z,30.27
2018-07-25T12:57:11.662Z,30.13
2018-07-25T12:59:38.460Z,30.15
2018-07-25T13:02:05.336Z,30.20
2018-07-25T13:04:32.175Z,30.29
2018-07-25T13:06:58.907Z,30.37
2018-07-25T13:09:25.714Z,30.42
2018-07-25T13:11:54.372Z,30.36
2018-07-25T13:14:21.258Z,30.19
2018-07-25T13:16:48.012Z,30.07
2018-07-25T13:19:14.775Z,30.02
2018-07-25T13:21:41.568Z,30.10
2018-07-25T13:24:08.507Z,30.26
2018-07-25T13:26:35.295Z,30.48
2018-07-25T13:29:02.067Z,30.65
2018-07-25T13:31:28.909Z,30.78
2018-07-25T13:33:55.784Z,30.91
2018-07-25T13:36:22.576Z,31.05
2018-07-25T13:38:49.328Z,31.20
2018-07-25T13:41:16.088Z,31.32
2018-07-25T13:43:42.828Z,31.40
2018-07-25T13:46:09.699Z,31.31
2018-07-25T13:48:36.686Z,31.31
2018-07-25T13:51:03.412Z,31.44
2018-07-25T13:53:30.168Z,31.60
2018-07-25T13:55:56.949Z,31.69
2018-07-25T13:58:23.835Z,31.80
2018-07-25T14:00:50.671Z,31.77
2018-07-25T14:03:17.403Z,31.86
2018-07-25T14:05:44.214Z,31.96
2018-07-25T14:08:10.956Z,31.99
2018-07-25T14:10:37.719Z,32.08
2018-07-25T14:13:04.508Z,32.12
2018-07-25T14:15:31.239Z,32.07
2018-07-25T14:17:58.045Z,31.95
2018-07-25T14:20:24.757Z,32.06
2018-07-25T14:22:51.571Z,32.18
2018-07-25T14:25:18.312Z,32.30
2018-07-25T14:27:45.104Z,32.39
2018-07-25T14:30:11.888Z,32.48
2018-07-25T14:32:38.614Z,32.55
2018-07-25T14:35:05.357Z,32.68
2018-07-25T14:37:32.107Z,32.75
2018-07-25T14:39:58.943Z,32.80
2018-07-25T14:42:25.660Z,32.83
2018-07-25T14:44:52.392Z,32.78
2018-07-25T14:47:19.219Z,32.39
2018-07-25T14:49:45.983Z,32.09
2018-07-25T14:52:12.711Z,32.08
2018-07-25T14:54:39.533Z,32.34
2018-07-25T14:57:06.292Z,32.66
2018-07-25T14:59:33.056Z,32.98
2018-07-25T15:01:59.804Z,33.12
2018-07-25T15:04:26.572Z,33.18
2018-07-25T15:06:53.308Z,33.35
2018-07-25T15:09:20.064Z,33.60
2018-07-25T15:11:46.876Z,33.71
2018-07-25T15:14:13.639Z,33.93
2018-07-25T15:16:40.376Z,34.13
2018-07-25T15:19:07.149Z,34.22
2018-07-25T15:21:33.860Z,34.51
2018-07-25T15:24:03.961Z,34.75
2018-07-25T15:26:30.692Z,34.85
2018-07-25T15:28:58.892Z,35.08
2018-07-25T15:31:25.680Z,35.38
2018-07-25T15:33:52.428Z,35.61
2018-07-25T15:36:47.791Z,35.91
2018-07-25T15:39:16.945Z,35.96
2018-07-25T15:41:44.980Z,36.15
2018-07-25T15:44:11.715Z,36.32
2018-07-25T15:46:38.492Z,36.59
2018-07-25T15:49:05.553Z,36.88
2018-07-25T15:51:32.388Z,36.74
2018-07-25T15:53:59.148Z,36.83
2018-07-25T15:56:25.916Z,37.21
2018-07-25T15:58:52.643Z,37.56
2018-07-25T16:01:19.445Z,37.73
2018-07-25T16:03:46.245Z,37.97
2018-07-25T16:06:13.016Z,38.26
2018-07-25T16:08:39.754Z,38.61
2018-07-25T16:11:06.692Z,38.47
2018-07-25T16:13:33.417Z,38.54
2018-07-25T16:16:00.180Z,38.73
2018-07-25T16:18:26.932Z,39.91
2018-07-25T16:20:53.728Z,39.58
2018-07-25T16:23:20.492Z,39.09
2018-07-25T16:25:47.211Z,38.91
2018-07-25T16:28:14.076Z,37.82
2018-07-25T16:30:40.807Z,35.87
2018-07-25T16:33:07.569Z,34.44
2018-07-25T16:35:34.328Z,32.65
2018-07-25T16:38:01.614Z,31.69
2018-07-25T16:40:28.503Z,30.49
2018-07-25T16:42:55.262Z,29.33
2018-07-25T16:45:22.014Z,28.56
2018-07-25T16:47:48.806Z,28.18
2018-07-25T16:50:15.519Z,28.02
2018-07-25T16:52:42.283Z,28.08
2018-07-25T16:55:09.036Z,28.07
2018-07-25T16:57:36.183Z,27.99
2018-07-25T17:00:03.767Z,27.95
2018-07-25T17:02:30.609Z,27.91
2018-07-25T17:04:57.311Z,27.95
2018-07-25T17:07:24.064Z,27.87
2018-07-25T17:09:50.815Z,28.10
2018-07-25T17:12:17.539Z,29.66
2018-07-25T17:14:44.491Z,30.47
2018-07-25T17:17:11.297Z,31.83
2018-07-25T17:19:38.096Z,33.19
2018-07-25T17:22:04.835Z,33.07
2018-07-25T17:24:31.693Z,32.13
2018-07-25T17:26:58.430Z,31.33
2018-07-25T17:29:25.216Z,30.80
2018-07-25T17:31:51.978Z,30.35
2018-07-25T17:34:18.762Z,29.95
2018-07-25T17:36:45.507Z,29.66
2018-07-25T17:39:12.284Z,29.36
2018-07-25T17:41:39.750Z,29.07
2018-07-25T17:44:06.528Z,28.86
2018-07-25T17:46:33.248Z,28.65
2018-07-25T17:49:00.052Z,28.45
2018-07-25T17:51:26.818Z,28.35
2018-07-25T17:53:53.585Z,28.28
2018-07-25T17:56:20.590Z,28.16
2018-07-25T17:58:47.370Z,28.00
2018-07-25T18:01:14.300Z,27.87
2018-07-25T18:03:41.169Z,27.83
2018-07-25T18:06:07.990Z,27.77
2018-07-25T18:08:34.929Z,27.67
2018-07-25T18:11:02.709Z,27.63
2018-07-25T18:13:38.573Z,27.62
2018-07-25T18:16:05.652Z,27.61
2018-07-25T18:18:32.371Z,27.49
2018-07-25T18:21:01.699Z,27.47
2018-07-25T18:23:28.442Z,27.51
2018-07-25T18:25:55.288Z,27.39
2018-07-25T18:28:22.051Z,27.36
2018-07-25T18:30:48.948Z,27.28
2018-07-25T18:33:15.700Z,27.22
2018-07-25T18:35:42.515Z,27.15
2018-07-25T18:38:09.215Z,27.13
2018-07-25T18:40:35.979Z,27.16
2018-07-25T18:43:03.075Z,27.07
2018-07-25T18:45:29.898Z,26.99
2018-07-25T18:47:56.655Z,26.86
2018-07-25T18:50:23.396Z,26.79
2018-07-25T18:52:50.159Z,26.76
2018-07-25T18:55:16.884Z,26.75
2018-07-25T18:57:43.730Z,26.73
2018-07-25T19:00:10.486Z,26.76
2018-07-25T19:02:37.254Z,26.68
2018-07-25T19:05:03.967Z,26.61
2018-07-25T19:07:30.804Z,26.58
2018-07-25T19:09:57.529Z,26.48
2018-07-25T19:12:24.303Z,26.44
2018-07-25T19:14:56.949Z,26.45
2018-07-25T19:17:23.716Z,26.45
2018-07-25T19:19:50.445Z,26.36
2018-07-25T19:22:17.279Z,26.34
2018-07-25T19:24:44.057Z,26.31
2018-07-25T19:27:10.832Z,26.25
2018-07-25T19:29:37.703Z,26.13
2018-07-25T19:32:04.602Z,26.07
2018-07-25T19:34:31.355Z,26.03
2018-07-25T19:36:58.092Z,26.06
2018-07-25T19:39:28.996Z,26.09
2018-07-25T19:41:55.792Z,26.09
2018-07-25T19:44:22.564Z,26.11
2018-07-25T19:46:49.336Z,26.05
2018-07-25T19:49:16.107Z,26.06
2018-07-25T19:51:42.861Z,26.05
2018-07-25T19:54:09.617Z,26.03
2018-07-25T19:56:36.352Z,26.05
2018-07-25T19:59:03.947Z,26.05
2018-07-25T20:01:30.681Z,26.07
2018-07-25T20:03:57.450Z,26.08
2018-07-25T20:06:24.193Z,26.12
2018-07-25T20:11:17.675Z,26.08
2018-07-25T20:13:50.138Z,26.05
2018-07-25T20:16:16.961Z,26.02
2018-07-25T20:18:43.720Z,25.95
2018-07-25T20:21:10.569Z,25.96
2018-07-25T20:23:37.511Z,26.00
2018-07-25T20:26:04.389Z,26.04
2018-07-25T20:28:31.136Z,26.03
2018-07-25T20:30:57.915Z,25.98
2018-07-25T20:33:24.708Z,25.92
2018-07-25T20:35:53.146Z,25.85
2018-07-25T20:38:19.828Z,25.84
2018-07-25T20:40:46.583Z,25.83
2018-07-25T20:43:13.433Z,25.81
2018-07-25T20:45:40.233Z,25.79
2018-07-25T20:48:06.959Z,25.75
2018-07-25T20:50:33.706Z,25.73
2018-07-25T20:53:00.458Z,25.74
2018-07-25T20:55:27.332Z,25.77
2018-07-25T20:57:54.151Z,25.79
2018-07-25T21:00:26.627Z,25.72
2018-07-25T21:02:53.380Z,25.61
2018-07-25T21:05:20.148Z,25.60
2018-07-25T21:07:46.909Z,25.49
2018-07-25T21:10:14.348Z,25.54
2018-07-25T21:12:40.460Z,25.58
2018-07-25T21:15:07.792Z,25.53
2018-07-25T21:17:34.552Z,25.57
2018-07-25T21:20:01.284Z,25.50
2018-07-25T21:22:28.162Z,25.39
2018-07-25T21:24:54.908Z,25.23
2018-07-25T21:27:21.673Z,25.09
2018-07-25T21:29:48.836Z,25.03
2018-07-25T21:32:15.643Z,24.93
2018-07-25T21:34:42.431Z,24.73
2018-07-25T21:37:09.177Z,24.61
2018-07-25T21:39:35.935Z,24.55
2018-07-25T21:42:02.715Z,24.64
2018-07-25T21:44:30.454Z,24.54
2018-07-25T21:46:57.191Z,24.55
2018-07-25T21:49:23.955Z,24.58
2018-07-25T21:51:50.693Z,24.56
2018-07-25T21:54:17.440Z,24.56
2018-07-25T21:56:44.158Z,24.50
2018-07-25T21:59:11.303Z,24.46
2018-07-25T22:01:38.367Z,24.46
2018-07-25T22:04:05.588Z,24.42
2018-07-25T22:06:32.685Z,24.42
2018-07-25T22:08:59.537Z,24.22
2018-07-25T22:11:26.274Z,24.16
2018-07-25T22:13:53.847Z,24.10
2018-07-25T22:16:20.608Z,24.15
2018-07-25T22:18:47.355Z,24.07
2018-07-25T22:21:14.482Z,23.98
2018-07-25T22:23:41.550Z,23.97
2018-07-25T22:26:08.316Z,23.89
2018-07-25T22:28:35.067Z,23.90
2018-07-25T22:31:02.054Z,23.86
2018-07-25T22:33:28.993Z,23.86
2018-07-25T22:35:55.813Z,23.86
2018-07-25T22:38:22.559Z,23.84
2018-07-25T22:40:49.372Z,23.78
2018-07-25T22:43:16.132Z,23.65
2018-07-25T22:45:42.910Z,23.60
2018-07-25T22:48:09.707Z,23.67
2018-07-25T22:50:36.468Z,23.71
2018-07-25T22:53:03.193Z,23.74
2018-07-25T22:55:30.047Z,23.79
2018-07-25T22:57:56.723Z,23.76
2018-07-25T23:00:23.467Z,23.76
2018-07-25T23:02:50.236Z,23.74
2018-07-25T23:05:16.967Z,23.69
2018-07-25T23:07:43.742Z,23.68
2018-07-25T23:10:10.496Z,23.73
2018-07-25T23:12:37.265Z,23.72
2018-07-25T23:15:04.205Z,23.74
2018-07-25T23:17:30.981Z,23.74
2018-07-25T23:19:57.828Z,23.69
2018-07-25T23:22:24.497Z,23.61
2018-07-25T23:24:51.263Z,23.55
2018-07-25T23:27:18.036Z,23.49
2018-07-25T23:29:44.822Z,23.50
2018-07-25T23:32:12.591Z,23.59
2018-07-25T23:34:39.324Z,23.65
2018-07-25T23:37:06.216Z,23.68
2018-07-25T23:39:32.884Z,23.66
2018-07-25T23:41:59.712Z,23.66
2018-07-25T23:44:26.471Z,23.64
2018-07-25T23:46:53.203Z,23.65
2018-07-25T23:49:19.968Z,23.58
2018-07-25T23:51:46.689Z,23.53
2018-07-25T23:54:13.531Z,23.45
2018-07-25T23:56:40.934Z,23.35
2018-07-25T23:59:07.031Z,23.22
